Time;durP1;ratioP1;P1;durP2;ratioP2;P2;SDS_P1;SDS_P2;PMS_P1;PMS_P2;Temp;Humidity;BMP_temperature;BMP_pressure;BME280_temperature;BME280_humidity;BME280_pressure;Samples;Min_cycle;Max_cycle;Signal;HPM_P1;HPM_P2
2022/03/24 00:01:30;;;;;;;17.48;9.63;;;9.20;46.30;;;;;;5088115;28;20060;-90
2022/03/24 00:03:55;;;;;;;12.45;8.93;;;9.20;46.60;;;;;;5079128;28;20039;-90
2022/03/24 00:06:21;;;;;;;15.25;10.32;;;9.20;46.40;;;;;;5097977;28;20794;-91
2022/03/24 00:08:46;;;;;;;17.60;10.10;;;9.20;46.50;;;;;;5091627;28;20440;-91
2022/03/24 00:11:12;;;;;;;19.25;9.90;;;9.20;46.40;;;;;;5077559;28;20052;-90
2022/03/24 00:13:38;;;;;;;20.33;10.23;;;9.20;46.40;;;;;;5077328;28;20077;-89
2022/03/24 00:16:04;;;;;;;19.77;11.07;;;9.20;46.30;;;;;;5059511;28;20138;-90
2022/03/24 00:18:32;;;;;;;18.35;10.98;;;9.20;46.60;;;;;;5077562;28;20035;-90
2022/03/24 00:20:58;;;;;;;17.02;9.82;;;9.10;46.60;;;;;;5059417;28;20051;-91
2022/03/24 00:23:24;;;;;;;15.45;9.60;;;9.20;46.80;;;;;;5077554;28;20063;-90
2022/03/24 00:25:50;;;;;;;14.88;9.63;;;9.20;46.70;;;;;;5077034;28;20025;-89
2022/03/24 00:28:16;;;;;;;14.88;8.80;;;9.20;46.80;;;;;;5077922;28;20029;-90
2022/03/24 00:30:41;;;;;;;17.63;9.32;;;9.10;47.30;;;;;;5059342;28;20024;-90
2022/03/24 00:33:07;;;;;;;15.68;9.57;;;9.10;47.80;;;;;;5083659;28;20066;-89
2022/03/24 00:35:33;;;;;;;14.38;9.88;;;9.10;47.50;;;;;;5079514;28;20039;-89
2022/03/24 00:37:59;;;;;;;15.00;8.35;;;9.20;47.70;;;;;;5079345;28;20032;-89
2022/03/24 00:40:24;;;;;;;14.18;8.80;;;9.20;48.60;;;;;;5065063;28;20504;-88
2022/03/24 00:42:50;;;;;;;14.57;8.18;;;9.20;48.60;;;;;;5055539;28;20048;-90
2022/03/24 00:45:18;;;;;;;16.63;9.65;;;9.10;49.30;;;;;;5057288;28;20021;-92
2022/03/24 00:47:45;;;;;;;16.52;8.63;;;9.20;49.30;;;;;;5065144;28;20063;-90
2022/03/24 00:50:13;;;;;;;17.30;9.60;;;9.10;49.40;;;;;;5060925;28;20392;-89
2022/03/24 00:52:42;;;;;;;16.48;10.07;;;9.10;49.70;;;;;;5057262;28;20025;-91
2022/03/24 00:55:13;;;;;;;26.63;12.10;;;9.00;49.50;;;;;;5057013;28;20028;-91
2022/03/24 00:57:40;;;;;;;29.67;11.85;;;9.00;48.60;;;;;;5056113;28;20475;-90
2022/03/24 01:00:06;;;;;;;22.20;11.50;;;9.10;48.80;;;;;;5056991;28;20048;-89
2022/03/24 01:02:37;;;;;;;21.50;10.75;;;9.00;49.00;;;;;;5070464;28;20036;-89
2022/03/24 01:05:05;;;;;;;24.85;10.38;;;9.10;48.80;;;;;;5063487;28;20374;-91
2022/03/24 01:07:30;;;;;;;16.05;10.68;;;9.10;48.60;;;;;;5075808;28;20479;-91
2022/03/24 01:09:56;;;;;;;17.20;9.80;;;9.10;48.50;;;;;;5076895;28;20017;-90
2022/03/24 01:12:22;;;;;;;17.65;10.98;;;9.10;48.90;;;;;;5064730;28;20083;-90
2022/03/24 01:14:48;;;;;;;18.42;11.63;;;9.10;48.60;;;;;;5055735;28;20021;-90
2022/03/24 01:17:16;;;;;;;17.27;10.52;;;9.10;48.60;;;;;;5055598;28;20612;-91
2022/03/24 01:19:42;;;;;;;22.15;12.43;;;9.00;48.80;;;;;;5057024;28;20021;-90
2022/03/24 01:22:08;;;;;;;20.77;11.95;;;9.10;48.80;;;;;;5056873;28;20112;-88
2022/03/24 01:24:38;;;;;;;16.65;10.15;;;9.00;48.60;;;;;;5056822;28;20045;-90
2022/03/24 01:27:05;;;;;;;19.30;11.13;;;9.00;48.90;;;;;;5073118;28;20812;-90
2022/03/24 01:29:31;;;;;;;17.42;9.65;;;9.00;48.80;;;;;;5075556;28;20510;-90
2022/03/24 01:31:58;;;;;;;16.20;10.23;;;9.00;49.00;;;;;;5075771;28;20029;-89
2022/03/24 01:34:24;;;;;;;21.17;10.02;;;8.90;49.20;;;;;;5076954;28;20029;-90
2022/03/24 01:36:50;;;;;;;20.15;10.88;;;9.00;49.50;;;;;;5056975;28;20045;-90
2022/03/24 01:39:16;;;;;;;19.40;10.70;;;8.90;49.40;;;;;;5056747;28;20024;-90
2022/03/24 01:41:44;;;;;;;15.38;10.23;;;8.90;50.40;;;;;;5066547;28;20049;-90
2022/03/24 01:44:12;;;;;;;16.90;10.40;;;8.80;50.30;;;;;;5059134;28;20466;-90
2022/03/24 01:46:52;;;;;;;18.40;10.27;;;8.80;50.60;;;;;;5059010;28;20020;-91
2022/03/24 01:49:18;;;;;;;16.80;9.52;;;8.70;51.50;;;;;;5061025;28;20387;-91
2022/03/24 01:51:43;;;;;;;15.23;9.48;;;8.70;51.60;;;;;;5080552;28;20089;-91
2022/03/24 01:54:12;;;;;;;20.30;10.40;;;8.60;50.00;;;;;;5080617;28;20438;-90
2022/03/24 01:56:40;;;;;;;16.33;9.60;;;8.50;51.00;;;;;;5062132;28;20031;-91
2022/03/24 01:59:07;;;;;;;15.90;9.98;;;8.50;51.50;;;;;;5062303;28;20027;-90
2022/03/24 02:01:35;;;;;;;21.10;10.75;;;8.50;50.00;;;;;;5080777;28;20025;-91
2022/03/24 02:04:04;;;;;;;15.40;10.02;;;8.50;50.20;;;;;;5080100;28;20099;-90
2022/03/24 02:06:31;;;;;;;22.15;10.82;;;8.40;51.00;;;;;;5080022;28;20035;-90
2022/03/24 02:08:57;;;;;;;17.00;10.27;;;8.50;50.50;;;;;;5080150;28;20032;-90
2022/03/24 02:11:23;;;;;;;26.65;10.05;;;8.50;51.20;;;;;;5080017;28;20028;-89
2022/03/24 02:13:49;;;;;;;20.45;11.38;;;8.50;50.70;;;;;;5079944;28;20052;-89
2022/03/24 02:16:15;;;;;;;20.70;10.57;;;8.40;50.40;;;;;;5080008;28;20114;-89
2022/03/24 02:18:41;;;;;;;19.67;10.60;;;8.50;50.20;;;;;;5062111;28;20056;-89
2022/03/24 02:21:08;;;;;;;18.90;10.95;;;8.40;50.50;;;;;;5068232;28;20039;-88
2022/03/24 02:23:33;;;;;;;17.65;10.35;;;8.40;50.50;;;;;;5082073;28;20026;-91
2022/03/24 02:26:01;;;;;;;18.08;10.18;;;8.40;50.70;;;;;;5071974;28;20021;-89
2022/03/24 02:28:27;;;;;;;17.73;10.10;;;8.40;50.90;;;;;;5061766;28;20025;-89
2022/03/24 02:30:53;;;;;;;15.45;9.60;;;8.40;50.70;;;;;;5079380;28;20024;-91
2022/03/24 02:33:21;;;;;;;16.15;9.80;;;8.30;50.90;;;;;;5061433;28;20024;-89
2022/03/24 02:35:48;;;;;;;17.98;9.90;;;8.20;51.10;;;;;;5061837;28;20095;-88
2022/03/24 02:38:14;;;;;;;17.20;10.60;;;8.20;51.80;;;;;;5079404;28;20024;-89
2022/03/24 02:40:40;;;;;;;15.25;9.52;;;8.20;52.00;;;;;;5079681;28;20487;-90
2022/03/24 02:43:06;;;;;;;16.42;10.45;;;8.20;51.50;;;;;;5061304;28;20101;-90
2022/03/24 02:45:31;;;;;;;15.27;9.13;;;8.20;51.30;;;;;;5061949;28;20107;-89
2022/03/24 02:47:57;;;;;;;12.50;8.70;;;8.10;52.30;;;;;;5090428;28;20031;-89
2022/03/24 02:50:23;;;;;;;16.70;9.25;;;8.10;52.30;;;;;;5081251;28;20080;-88
2022/03/24 02:52:48;;;;;;;16.08;9.32;;;8.10;52.40;;;;;;5085428;28;20056;-90
2022/03/24 02:55:14;;;;;;;20.55;10.85;;;8.10;52.00;;;;;;5061313;28;20028;-87
2022/03/24 02:57:40;;;;;;;19.55;11.15;;;8.10;52.10;;;;;;5079074;28;20035;-88
2022/03/24 03:00:07;;;;;;;15.68;10.48;;;8.10;52.00;;;;;;5061161;28;20086;-89
2022/03/24 03:02:33;;;;;;;19.85;11.02;;;8.00;52.30;;;;;;5061360;28;20044;-89
2022/03/24 03:04:58;;;;;;;24.67;12.25;;;8.00;52.60;;;;;;5079200;28;20017;-90
2022/03/24 03:07:24;;;;;;;21.88;11.70;;;7.90;53.10;;;;;;5061045;28;20054;-90
2022/03/24 03:09:50;;;;;;;19.02;10.63;;;7.90;53.40;;;;;;5060741;28;20035;-89
2022/03/24 03:12:18;;;;;;;20.77;10.68;;;7.90;52.70;;;;;;5060967;28;20031;-89
2022/03/24 03:14:47;;;;;;;22.35;11.00;;;7.90;52.00;;;;;;5078956;28;20490;-90
2022/03/24 03:17:15;;;;;;;21.23;11.20;;;8.00;52.10;;;;;;5078517;28;20029;-90
2022/03/24 03:19:42;;;;;;;19.67;10.93;;;8.00;52.10;;;;;;5060928;28;20024;-90
2022/03/24 03:22:09;;;;;;;20.65;11.82;;;7.90;51.70;;;;;;5078835;28;20552;-89
2022/03/24 03:24:35;;;;;;;16.67;10.32;;;8.00;52.00;;;;;;5078386;28;20044;-90
2022/03/24 03:27:01;;;;;;;17.42;10.65;;;7.90;51.90;;;;;;5078525;28;20025;-91
2022/03/24 03:29:27;;;;;;;21.35;11.00;;;7.80;52.10;;;;;;5078413;28;20026;-90
2022/03/24 03:31:53;;;;;;;17.20;10.27;;;7.70;52.50;;;;;;5060561;28;20028;-89
2022/03/24 03:34:24;;;;;;;16.27;10.30;;;7.70;52.40;;;;;;5078532;28;20024;-91
2022/03/24 03:36:53;;;;;;;16.88;10.15;;;7.60;52.70;;;;;;5078045;28;20444;-90
2022/03/24 03:39:19;;;;;;;18.40;10.52;;;7.50;52.80;;;;;;5060707;28;20024;-89
2022/03/24 03:41:45;;;;;;;17.73;10.80;;;7.50;52.90;;;;;;5078430;28;20135;-90
2022/03/24 03:44:11;;;;;;;17.77;10.50;;;7.50;53.30;;;;;;5078514;28;20484;-89
2022/03/24 03:46:37;;;;;;;19.80;10.60;;;7.50;53.10;;;;;;5078258;28;20032;-89
2022/03/24 03:49:04;;;;;;;18.90;10.07;;;7.50;53.20;;;;;;5098101;28;20024;-89
2022/03/24 03:51:31;;;;;;;19.05;10.88;;;7.50;53.10;;;;;;5098413;28;20110;-90
2022/03/24 03:53:57;;;;;;;20.08;10.75;;;7.50;53.00;;;;;;5098538;28;20382;-89
2022/03/24 03:56:23;;;;;;;17.85;10.63;;;7.30;53.50;;;;;;5092273;28;20031;-91
2022/03/24 03:58:49;;;;;;;17.50;10.38;;;7.20;54.00;;;;;;5078045;28;20021;-91
2022/03/24 04:01:15;;;;;;;15.95;10.52;;;7.10;54.30;;;;;;5077729;28;20032;-91
2022/03/24 04:03:41;;;;;;;18.77;10.57;;;7.00;54.50;;;;;;5077835;28;20016;-89
2022/03/24 04:06:09;;;;;;;21.90;11.70;;;6.90;54.70;;;;;;5075612;28;20031;-90
2022/03/24 04:08:40;;;;;;;23.02;11.15;;;6.80;55.10;;;;;;5079928;28;20031;-89
2022/03/24 04:11:07;;;;;;;19.15;11.43;;;6.70;55.50;;;;;;5064510;28;20032;-89
2022/03/24 04:13:40;;;;;;;19.38;11.65;;;6.70;56.00;;;;;;5077920;28;20024;-90
2022/03/24 04:16:11;;;;;;;19.23;12.20;;;6.70;56.20;;;;;;5077829;28;20024;-90
2022/03/24 04:18:38;;;;;;;19.63;12.38;;;6.70;56.10;;;;;;5077603;28;20095;-90
2022/03/24 04:21:04;;;;;;;18.95;11.45;;;6.70;56.10;;;;;;5094502;28;20433;-89
2022/03/24 04:23:31;;;;;;;21.55;11.30;;;6.70;56.40;;;;;;5097240;28;20059;-88
2022/03/24 04:25:56;;;;;;;19.02;10.48;;;6.70;56.70;;;;;;5079616;28;20074;-89
2022/03/24 04:28:22;;;;;;;18.05;11.23;;;6.70;56.70;;;;;;5079624;28;20024;-90
2022/03/24 04:30:48;;;;;;;18.50;11.18;;;6.70;56.60;;;;;;5097686;28;20024;-91
2022/03/24 04:33:13;;;;;;;21.85;12.65;;;6.70;56.30;;;;;;5085738;28;20036;-91
2022/03/24 04:35:39;;;;;;;23.92;12.13;;;6.70;56.00;;;;;;5077741;28;20024;-89
2022/03/24 04:38:07;;;;;;;19.08;11.32;;;6.80;56.10;;;;;;5077396;28;20109;-90
2022/03/24 04:40:33;;;;;;;19.42;11.57;;;6.80;55.40;;;;;;5059012;28;20070;-89
2022/03/24 04:42:58;;;;;;;17.95;10.80;;;6.90;55.50;;;;;;5077257;28;20025;-90
2022/03/24 04:45:27;;;;;;;20.02;11.05;;;6.90;55.50;;;;;;5077426;28;20028;-89
2022/03/24 04:47:53;;;;;;;22.20;11.98;;;7.00;55.20;;;;;;5069488;28;20042;-89
2022/03/24 04:50:19;;;;;;;20.83;12.10;;;7.00;55.10;;;;;;5062960;28;20092;-90
2022/03/24 04:52:45;;;;;;;23.10;12.25;;;7.00;55.30;;;;;;5077265;28;20048;-90
2022/03/24 04:55:11;;;;;;;19.92;11.30;;;7.00;55.20;;;;;;5077003;28;20029;-89
2022/03/24 04:57:37;;;;;;;18.95;10.90;;;7.00;55.10;;;;;;5077214;28;20029;-89
2022/03/24 05:00:04;;;;;;;17.95;11.45;;;7.00;55.20;;;;;;5069523;28;20066;-89
2022/03/24 05:02:30;;;;;;;19.60;11.68;;;6.90;55.30;;;;;;5097107;28;20050;-89
2022/03/24 05:04:55;;;;;;;20.45;11.55;;;6.90;55.30;;;;;;5062329;28;20124;-88
2022/03/24 05:07:21;;;;;;;21.05;12.50;;;6.90;55.30;;;;;;5076935;28;20025;-91
2022/03/24 05:09:50;;;;;;;21.90;12.18;;;6.90;55.70;;;;;;5077070;28;20032;-88
2022/03/24 05:12:16;;;;;;;20.08;11.15;;;6.80;55.60;;;;;;5064159;28;20024;-91
2022/03/24 05:14:42;;;;;;;20.65;11.55;;;6.70;56.20;;;;;;5097383;28;20039;-89
2022/03/24 05:17:08;;;;;;;22.30;12.45;;;6.60;56.20;;;;;;5097488;28;20024;-89
2022/03/24 05:19:34;;;;;;;23.00;12.85;;;6.70;56.50;;;;;;5086221;28;20086;-90
2022/03/24 05:22:01;;;;;;;22.08;12.48;;;6.70;56.30;;;;;;5077225;28;20028;-89
2022/03/24 05:24:27;;;;;;;25.10;12.18;;;6.70;56.20;;;;;;5060946;28;20036;-89
2022/03/24 05:26:53;;;;;;;21.05;11.43;;;6.70;56.00;;;;;;5081018;28;20021;-92
2022/03/24 05:29:19;;;;;;;20.15;12.30;;;6.60;56.20;;;;;;5062796;28;20027;-90
2022/03/24 05:31:45;;;;;;;23.10;12.55;;;6.60;57.00;;;;;;5063092;28;20028;-89
2022/03/24 05:34:11;;;;;;;18.80;12.25;;;6.60;56.70;;;;;;5062893;28;20028;-90
2022/03/24 05:36:37;;;;;;;29.77;14.77;;;6.60;56.60;;;;;;5080440;28;20074;-90
2022/03/24 05:39:04;;;;;;;26.50;14.15;;;6.60;56.60;;;;;;5080744;28;20029;-89
2022/03/24 05:41:30;;;;;;;26.92;14.57;;;6.60;56.60;;;;;;5080103;28;20041;-91
2022/03/24 05:44:05;;;;;;;25.13;12.05;;;6.60;56.90;;;;;;5091333;28;20036;-88
2022/03/24 05:46:44;;;;;;;21.83;12.50;;;6.50;57.00;;;;;;5082216;28;20024;-86
2022/03/24 05:49:14;;;;;;;20.77;11.82;;;6.40;57.40;;;;;;5078790;28;20054;-80
2022/03/24 06:51:52;;;;;;;25.45;14.35;;;4.70;67.50;;;;;;5069778;28;20920;-81
2022/03/24 06:54:18;;;;;;;26.50;14.05;;;4.90;67.50;;;;;;5072281;28;20028;-77
2022/03/24 06:56:44;;;;;;;26.45;13.95;;;5.30;66.80;;;;;;5070201;28;20396;-78
2022/03/24 06:59:10;;;;;;;22.25;12.70;;;5.70;65.50;;;;;;5069326;28;20056;-77
2022/03/24 07:01:36;;;;;;;26.58;15.07;;;6.10;64.50;;;;;;5071750;28;20361;-78
2022/03/24 07:04:02;;;;;;;28.85;14.75;;;6.80;62.90;;;;;;5071728;28;20064;-78
2022/03/24 07:06:27;;;;;;;30.05;15.20;;;8.10;59.30;;;;;;5069986;28;20033;-75
2022/03/24 07:08:53;;;;;;;27.15;15.73;;;9.30;55.70;;;;;;5070923;28;20550;-75
2022/03/24 07:11:19;;;;;;;26.58;14.93;;;10.20;52.30;;;;;;5069008;28;20024;-76
2022/03/24 07:13:45;;;;;;;23.58;15.35;;;10.30;50.70;;;;;;5070703;28;20054;-76
2022/03/24 07:16:10;;;;;;;26.67;15.50;;;10.20;51.40;;;;;;5070629;28;20040;-75
2022/03/24 07:18:36;;;;;;;22.55;15.80;;;10.50;50.80;;;;;;5066167;28;20135;-76
2022/03/24 07:21:02;;;;;;;31.70;16.45;;;11.20;49.30;;;;;;5051813;28;20504;-76
2022/03/24 07:23:28;;;;;;;27.92;15.73;;;11.80;47.60;;;;;;5052063;28;20039;-76
2022/03/24 07:25:53;;;;;;;26.75;16.35;;;12.40;46.10;;;;;;5051546;28;20052;-76
2022/03/24 07:28:19;;;;;;;29.45;16.73;;;12.80;45.40;;;;;;5050560;28;20111;-76
2022/03/24 07:30:50;;;;;;;24.58;16.30;;;13.50;44.60;;;;;;5049914;28;20391;-76
2022/03/24 07:33:16;;;;;;;23.70;16.48;;;14.70;42.80;;;;;;5051206;28;20025;-76
2022/03/24 07:35:42;;;;;;;22.98;15.85;;;15.50;40.00;;;;;;5051152;28;20029;-76
2022/03/24 07:38:09;;;;;;;22.20;16.60;;;16.50;37.70;;;;;;5051301;28;20033;-76
2022/03/24 07:40:35;;;;;;;22.60;16.50;;;17.50;36.50;;;;;;5050797;28;20025;-77
2022/03/24 07:43:00;;;;;;;22.13;16.35;;;18.70;34.90;;;;;;5083700;28;20033;-76
2022/03/24 07:45:26;;;;;;;24.65;16.83;;;19.60;33.80;;;;;;5051182;28;20037;-77
2022/03/24 07:48:31;;;;;;;25.70;17.85;;;20.30;33.10;;;;;;5061565;28;20027;-77
2022/03/24 07:50:59;;;;;;;24.23;19.50;;;21.10;31.50;;;;;;5028928;28;20079;-77
2022/03/24 07:53:27;;;;;;;34.42;26.13;;;21.80;31.30;;;;;;5027883;28;20093;-77
2022/03/24 07:55:55;;;;;;;27.67;21.90;;;22.30;30.40;;;;;;5049802;28;20041;-77
2022/03/24 07:58:22;;;;;;;30.13;22.63;;;22.50;29.80;;;;;;5071055;28;20025;-77
2022/03/24 08:00:48;;;;;;;26.98;20.17;;;23.00;29.20;;;;;;5065407;28;20033;-77
2022/03/24 08:03:17;;;;;;;26.45;19.35;;;23.30;28.50;;;;;;5037620;28;20042;-77
2022/03/24 08:05:43;;;;;;;27.52;20.77;;;23.40;28.40;;;;;;5037582;28;20483;-77
2022/03/24 08:08:10;;;;;;;28.92;23.08;;;23.20;26.90;;;;;;5038001;28;20033;-77
2022/03/24 08:10:37;;;;;;;26.40;21.10;;;24.00;28.10;;;;;;5038042;28;20041;-77
2022/03/24 08:13:04;;;;;;;24.98;19.75;;;23.80;25.50;;;;;;5057947;28;20025;-77
2022/03/24 08:15:30;;;;;;;24.60;19.48;;;23.80;26.80;;;;;;5044422;28;20517;-78
2022/03/24 08:17:56;;;;;;;27.73;20.85;;;24.80;27.30;;;;;;5038035;28;20107;-78
2022/03/24 08:20:23;;;;;;;26.45;20.85;;;25.10;26.80;;;;;;5036329;28;20053;-78
2022/03/24 08:22:49;;;;;;;26.05;21.77;;;25.60;25.90;;;;;;5037601;28;20373;-79
2022/03/24 08:25:15;;;;;;;25.63;21.67;;;26.10;25.60;;;;;;5037642;28;20077;-76
2022/03/24 08:27:41;;;;;;;27.15;23.83;;;25.80;24.10;;;;;;5037841;28;20087;-77
2022/03/24 08:30:07;;;;;;;28.60;22.15;;;26.50;24.30;;;;;;5036257;28;20022;-78
2022/03/24 08:32:33;;;;;;;26.58;22.38;;;27.00;23.20;;;;;;5037460;28;20026;-77
2022/03/24 08:35:00;;;;;;;27.02;23.05;;;25.70;22.10;;;;;;5037607;28;20416;-77
2022/03/24 08:37:25;;;;;;;28.60;22.70;;;26.30;24.00;;;;;;5036894;28;20853;-78
2022/03/24 08:39:51;;;;;;;28.10;23.58;;;26.20;22.60;;;;;;5037189;28;20178;-78
2022/03/24 08:42:17;;;;;;;24.98;22.38;;;26.60;22.80;;;;;;5037436;28;20061;-78
2022/03/24 08:44:43;;;;;;;25.27;22.58;;;27.10;23.50;;;;;;5037312;28;20021;-78
2022/03/24 08:47:09;;;;;;;24.92;22.30;;;27.80;22.70;;;;;;5041430;28;20388;-77
2022/03/24 08:49:34;;;;;;;25.75;23.15;;;28.30;21.80;;;;;;5056613;28;20033;-78
2022/03/24 08:52:00;;;;;;;27.40;24.38;;;28.10;21.40;;;;;;5037250;28;20514;-78
2022/03/24 08:54:26;;;;;;;27.42;23.10;;;28.50;21.90;;;;;;5041659;28;20063;-76
2022/03/24 08:56:51;;;;;;;25.95;23.25;;;28.90;21.80;;;;;;5055363;28;20019;-77
2022/03/24 08:59:17;;;;;;;28.40;22.88;;;29.10;21.30;;;;;;5057048;28;20028;-77
2022/03/24 09:01:43;;;;;;;28.52;24.42;;;28.50;20.50;;;;;;5056807;28;20562;-77
2022/03/24 09:04:13;;;;;;;27.95;23.27;;;28.00;21.70;;;;;;5052007;28;20033;-77
2022/03/24 09:06:39;;;;;;;26.70;23.45;;;28.40;21.50;;;;;;5036849;28;20025;-78
2022/03/24 09:09:05;;;;;;;26.02;23.23;;;27.90;21.30;;;;;;5037054;28;20029;-77
2022/03/24 09:11:31;;;;;;;26.40;23.63;;;27.20;21.70;;;;;;5044876;28;20475;-78
2022/03/24 09:13:56;;;;;;;26.27;23.48;;;26.90;22.50;;;;;;5054434;28;20047;-78
2022/03/24 09:16:22;;;;;;;29.98;23.38;;;27.30;22.10;;;;;;5056510;28;20063;-78
2022/03/24 09:18:48;;;;;;;27.27;24.38;;;26.80;22.00;;;;;;5050961;28;20030;-78
2022/03/24 09:21:14;;;;;;;27.52;23.77;;;26.10;22.50;;;;;;5051756;28;20520;-78
2022/03/24 09:23:40;;;;;;;26.63;23.55;;;26.80;23.00;;;;;;5036703;28;20032;-78
2022/03/24 09:26:07;;;;;;;28.80;24.08;;;27.00;22.20;;;;;;5036174;28;20093;-78
2022/03/24 09:28:32;;;;;;;27.63;23.55;;;26.70;22.30;;;;;;5036354;28;20036;-78
2022/03/24 09:30:58;;;;;;;26.38;23.60;;;26.60;22.60;;;;;;5035067;28;20029;-77
2022/03/24 09:33:24;;;;;;;26.92;24.02;;;26.90;22.30;;;;;;5036094;28;20037;-78
2022/03/24 09:35:50;;;;;;;25.67;23.00;;;27.20;22.50;;;;;;5036198;28;20136;-78
2022/03/24 09:38:17;;;;;;;27.80;23.77;;;27.30;23.00;;;;;;5051649;28;20033;-77
2022/03/24 09:40:43;;;;;;;27.48;23.65;;;27.40;23.00;;;;;;5035642;28;20029;-77
2022/03/24 09:43:09;;;;;;;31.38;25.63;;;27.90;22.90;;;;;;5036367;28;20025;-77
2022/03/24 09:45:37;;;;;;;28.58;24.08;;;27.80;21.50;;;;;;5040650;28;20025;-77
2022/03/24 09:48:06;;;;;;;30.02;23.63;;;26.60;22.90;;;;;;5055106;28;20029;-77
2022/03/24 09:50:34;;;;;;;27.13;24.05;;;25.90;22.90;;;;;;5035676;28;20095;-78
2022/03/24 09:53:00;;;;;;;30.73;23.85;;;26.10;23.70;;;;;;5054422;28;20025;-78
2022/03/24 09:55:26;;;;;;;26.65;23.25;;;26.60;24.20;;;;;;5047145;28;20026;-78
2022/03/24 09:57:52;;;;;;;26.42;23.67;;;27.00;22.90;;;;;;5036141;28;20392;-78
2022/03/24 10:00:18;;;;;;;26.67;23.88;;;27.00;22.50;;;;;;5048256;28;20476;-78
2022/03/24 10:03:09;;;;;;;28.17;24.23;;;27.30;23.40;;;;;;5050798;28;20046;-76
2022/03/24 10:05:36;;;;;;;26.95;23.95;;;27.30;23.90;;;;;;5035695;28;20105;-77
2022/03/24 10:08:06;;;;;;;25.73;23.13;;;27.30;23.80;;;;;;5035736;28;20025;-77
2022/03/24 10:10:34;;;;;;;26.45;23.60;;;27.00;23.90;;;;;;5035535;28;20056;-78
2022/03/24 10:13:02;;;;;;;29.20;23.48;;;27.20;24.30;;;;;;5056073;28;20038;-78
2022/03/24 10:15:28;;;;;;;28.33;23.65;;;27.10;23.80;;;;;;5055550;28;20025;-78
2022/03/24 10:17:56;;;;;;;27.00;23.65;;;26.90;24.50;;;;;;5055884;28;20025;-77
2022/03/24 10:20:26;;;;;;;28.17;23.53;;;26.80;24.40;;;;;;5036279;28;20503;-77
2022/03/24 10:22:56;;;;;;;29.63;23.90;;;26.40;25.10;;;;;;5035792;28;20017;-77
2022/03/24 10:25:25;;;;;;;27.80;23.23;;;25.30;26.60;;;;;;5035144;28;20060;-77
2022/03/24 10:28:01;;;;;;;27.50;22.77;;;24.50;27.50;;;;;;5035459;28;20479;-77
2022/03/24 10:30:26;;;;;;;31.63;24.35;;;23.40;28.00;;;;;;5034955;28;20033;-77
2022/03/24 10:32:56;;;;;;;29.70;22.33;;;23.00;29.70;;;;;;5035264;28;20625;-77
2022/03/24 10:35:23;;;;;;;31.08;22.02;;;22.70;30.70;;;;;;5035321;28;20029;-77
2022/03/24 10:37:50;;;;;;;32.10;22.42;;;22.60;31.80;;;;;;5039239;28;20025;-77
2022/03/24 10:40:16;;;;;;;33.38;22.40;;;22.50;31.40;;;;;;5053455;28;20462;-76
2022/03/24 10:42:42;;;;;;;31.90;21.67;;;22.30;31.90;;;;;;5055198;28;20048;-77
2022/03/24 10:45:22;;;;;;;33.50;22.52;;;22.00;32.60;;;;;;5055106;28;20029;-77
2022/03/24 10:47:54;;;;;;;31.52;20.95;;;21.80;33.70;;;;;;5054037;28;20028;-76
2022/03/24 10:50:33;;;;;;;33.55;21.75;;;21.70;33.50;;;;;;5055077;28;20647;-77
2022/03/24 10:53:03;;;;;;;31.58;20.70;;;21.60;34.00;;;;;;5037309;28;20402;-77
2022/03/24 10:55:40;;;;;;;33.47;20.67;;;21.40;34.10;;;;;;5035484;28;20037;-77
2022/03/24 10:58:09;;;;;;;34.10;20.17;;;21.40;35.20;;;;;;5035036;28;20504;-76
2022/03/24 11:00:39;;;;;;;32.00;19.48;;;21.30;33.40;;;;;;5049131;28;20064;-76
2022/03/24 11:03:05;;;;;;;30.42;19.77;;;21.40;33.40;;;;;;5034998;28;20060;-76
2022/03/24 11:05:31;;;;;;;33.47;20.83;;;21.50;33.70;;;;;;5035322;28;20041;-76
2022/03/24 11:07:57;;;;;;;34.97;20.08;;;21.30;33.90;;;;;;5034446;28;20396;-77
2022/03/24 11:10:23;;;;;;;37.13;21.52;;;21.30;34.20;;;;;;5033662;28;20029;-77
2022/03/24 11:12:52;;;;;;;34.38;18.92;;;21.30;34.50;;;;;;5053775;28;20032;-77
2022/03/24 11:15:19;;;;;;;35.30;20.60;;;21.20;33.00;;;;;;5050844;28;20048;-76
2022/03/24 11:17:46;;;;;;;30.77;17.98;;;20.90;33.60;;;;;;5034909;28;20029;-76
2022/03/24 11:20:17;;;;;;;26.05;16.63;;;20.90;32.20;;;;;;5033534;28;20041;-76
2022/03/24 11:22:59;;;;;;;23.50;15.60;;;20.60;30.10;;;;;;5034746;28;20373;-76
2022/03/24 11:25:26;;;;;;;23.30;13.95;;;20.40;30.00;;;;;;5034634;28;20025;-77
2022/03/24 11:27:56;;;;;;;30.52;17.60;;;20.00;29.70;;;;;;5033139;28;20017;-77
2022/03/24 11:30:23;;;;;;;28.98;17.40;;;20.00;31.00;;;;;;5050524;28;20499;-75
2022/03/24 11:32:54;;;;;;;25.45;14.60;;;20.20;32.00;;;;;;5044079;28;20124;-77
2022/03/24 11:35:21;;;;;;;22.73;15.38;;;20.40;32.40;;;;;;5054896;28;20045;-77
2022/03/24 11:37:49;;;;;;;24.95;15.65;;;20.40;31.20;;;;;;5055506;28;20056;-77
2022/03/24 11:40:23;;;;;;;26.77;17.27;;;20.10;30.00;;;;;;5053390;28;20041;-77
2022/03/24 11:42:53;;;;;;;26.40;16.75;;;19.80;31.30;;;;;;5053738;28;20026;-77
2022/03/24 11:45:32;;;;;;;23.77;15.25;;;20.00;31.50;;;;;;5070282;28;20549;-76
2022/03/24 11:48:06;;;;;;;25.45;16.20;;;20.20;30.70;;;;;;5049027;28;20017;-76
2022/03/24 11:50:46;;;;;;;25.58;14.93;;;20.10;30.90;;;;;;5052870;28;20109;-76
2022/03/24 11:53:16;;;;;;;27.88;16.00;;;20.30;31.50;;;;;;5036922;28;20021;-76
2022/03/24 11:56:00;;;;;;;28.55;14.32;;;20.30;30.70;;;;;;5038043;28;20128;-77
2022/03/24 11:58:31;;;;;;;22.55;14.15;;;19.80;30.00;;;;;;5038069;28;20436;-77
2022/03/24 12:01:17;;;;;;;25.73;15.82;;;19.90;30.40;;;;;;5046644;28;20567;-77
2022/03/24 12:03:55;;;;;;;26.30;15.52;;;19.90;31.50;;;;;;5069701;28;20060;-77
2022/03/24 12:06:40;;;;;;;25.02;14.77;;;20.00;31.30;;;;;;5069998;28;20030;-77
2022/03/24 12:09:08;;;;;;;23.55;14.18;;;20.00;31.20;;;;;;5037863;28;20412;-77
2022/03/24 12:11:33;;;;;;;24.33;13.45;;;20.20;32.20;;;;;;5046418;28;20028;-76
2022/03/24 12:14:03;;;;;;;22.10;13.15;;;20.00;29.70;;;;;;5056384;28;20621;-76
2022/03/24 12:16:30;;;;;;;24.67;13.73;;;20.10;30.90;;;;;;5054434;28;20033;-76
2022/03/24 12:18:56;;;;;;;30.42;15.10;;;20.30;31.70;;;;;;5069771;28;20105;-76
2022/03/24 12:21:31;;;;;;;22.77;14.95;;;20.30;32.00;;;;;;5049935;28;20025;-77
2022/03/24 12:24:06;;;;;;;23.40;14.40;;;20.40;30.90;;;;;;5050943;28;20400;-77
2022/03/24 12:26:37;;;;;;;22.17;13.85;;;20.50;31.20;;;;;;5037608;28;20496;-77
2022/03/24 12:29:12;;;;;;;20.92;13.05;;;20.50;30.60;;;;;;5037677;28;20392;-77
2022/03/24 12:32:07;;;;;;;16.48;9.68;;;20.60;30.20;;;;;;5069828;28;20033;-77
2022/03/24 12:34:39;;;;;;;18.45;10.90;;;20.30;26.30;;;;;;5037532;28;20025;-78
2022/03/24 12:37:07;;;;;;;17.63;10.75;;;20.30;27.70;;;;;;5037224;28;20127;-77
2022/03/24 12:39:38;;;;;;;19.85;11.95;;;20.40;27.60;;;;;;5036815;28;20030;-78
2022/03/24 12:42:15;;;;;;;21.52;11.68;;;20.50;28.20;;;;;;5055089;28;20033;-76
2022/03/24 12:44:57;;;;;;;23.38;12.43;;;20.60;29.10;;;;;;5055981;28;20089;-77
2022/03/24 12:47:43;;;;;;;22.70;11.25;;;20.60;29.40;;;;;;5050049;28;20040;-77
2022/03/24 12:50:29;;;;;;;19.45;12.45;;;20.50;29.60;;;;;;5057021;28;20531;-77
2022/03/24 12:52:56;;;;;;;20.50;11.55;;;20.50;27.90;;;;;;5054397;28;20522;-77
2022/03/24 12:55:37;;;;;;;20.02;12.57;;;20.60;28.80;;;;;;5056732;28;20029;-77
2022/03/24 12:58:10;;;;;;;17.75;10.15;;;20.80;29.40;;;;;;5056932;28;20020;-77
2022/03/24 13:00:42;;;;;;;23.30;13.85;;;20.50;28.00;;;;;;5055468;28;20032;-76
2022/03/24 13:03:09;;;;;;;19.17;11.48;;;20.70;30.20;;;;;;5057122;28;20100;-77
2022/03/24 13:05:36;;;;;;;18.65;10.68;;;20.80;28.80;;;;;;5054226;28;20029;-77
2022/03/24 13:08:05;;;;;;;20.25;11.43;;;20.80;29.30;;;;;;5036840;28;20018;-76
2022/03/24 13:10:33;;;;;;;17.10;10.68;;;20.90;28.20;;;;;;5036902;28;20447;-77
2022/03/24 13:13:03;;;;;;;21.70;11.68;;;20.80;27.40;;;;;;5045067;28;20098;-77
2022/03/24 13:15:35;;;;;;;17.60;11.32;;;20.90;28.30;;;;;;5036802;28;20079;-76
2022/03/24 13:18:03;;;;;;;22.08;12.00;;;20.80;27.00;;;;;;5036482;28;20032;-76
2022/03/24 13:20:48;;;;;;;24.40;12.80;;;20.70;28.10;;;;;;5036420;28;20037;-76
2022/03/24 13:23:15;;;;;;;22.33;13.48;;;20.80;29.00;;;;;;5036649;28;20022;-77
2022/03/24 13:25:44;;;;;;;22.92;13.95;;;20.90;29.70;;;;;;5036179;28;20442;-76
2022/03/24 13:28:11;;;;;;;19.15;11.93;;;21.00;28.80;;;;;;5036409;28;20021;-77
2022/03/24 13:30:39;;;;;;;19.50;11.23;;;21.10;29.00;;;;;;5035979;28;20034;-76
2022/03/24 13:33:11;;;;;;;18.27;11.80;;;21.10;27.30;;;;;;5036370;28;20482;-76
2022/03/24 13:35:39;;;;;;;20.83;11.40;;;21.10;26.70;;;;;;5036466;28;20035;-76
2022/03/24 13:38:10;;;;;;;24.27;10.73;;;21.10;27.90;;;;;;5036150;28;20067;-78